createdAt,value
2018-11-11T00:00:25.099Z,8.80
2018-11-11T00:02:56.795Z,8.80
2018-11-11T00:05:25.285Z,8.70
2018-11-11T00:07:55.806Z,8.60
2018-11-11T00:10:24.311Z,8.70
2018-11-11T00:12:52.814Z,8.80
2018-11-11T00:15:21.397Z,8.90
2018-11-11T00:17:49.870Z,8.90
2018-11-11T00:20:18.373Z,9.00
2018-11-11T00:22:46.866Z,9.00
2018-11-11T00:25:15.395Z,8.90
2018-11-11T00:27:44.076Z,8.80
2018-11-11T00:30:16.221Z,8.70
2018-11-11T00:32:44.805Z,8.70
2018-11-11T00:35:15.465Z,8.60
2018-11-11T00:37:44.069Z,8.80
2018-11-11T00:40:14.057Z,8.90
2018-11-11T00:42:42.683Z,9.00
2018-11-11T00:45:12.045Z,8.90
2018-11-11T00:47:42.942Z,8.90
2018-11-11T00:50:12.079Z,8.70
2018-11-11T00:52:40.654Z,8.60
2018-11-11T00:55:12.454Z,8.60
2018-11-11T00:57:41.182Z,8.60
2018-11-11T01:00:12.792Z,8.70
2018-11-11T01:02:41.942Z,8.70
2018-11-11T01:05:11.192Z,8.70
2018-11-11T01:07:40.469Z,8.80
2018-11-11T01:10:11.187Z,8.60
2018-11-11T01:12:40.336Z,8.60
2018-11-11T01:15:10.110Z,8.60
2018-11-11T01:17:38.678Z,8.70
2018-11-11T01:20:08.922Z,8.80
2018-11-11T01:22:37.533Z,8.80
2018-11-11T01:25:07.717Z,8.70
2018-11-11T01:27:36.265Z,8.70
2018-11-11T01:30:05.011Z,8.60
2018-11-11T01:32:33.562Z,8.50
2018-11-11T01:35:02.090Z,8.30
2018-11-11T01:37:30.678Z,8.30
2018-11-11T01:39:59.181Z,8.30
2018-11-11T01:42:27.717Z,8.30
2018-11-11T01:44:56.245Z,8.30
2018-11-11T01:47:24.876Z,8.30
2018-11-11T01:49:53.413Z,8.40
2018-11-11T01:52:34.093Z,8.60
2018-11-11T01:55:02.633Z,8.60
2018-11-11T01:57:31.149Z,8.50
2018-11-11T01:59:59.706Z,8.60
2018-11-11T02:02:28.213Z,8.60
2018-11-11T02:05:01.837Z,8.60
2018-11-11T02:07:30.333Z,8.70
2018-11-11T02:09:58.917Z,8.70
2018-11-11T02:12:27.373Z,8.60
2018-11-11T02:14:55.912Z,8.70
2018-11-11T02:17:24.405Z,8.70
2018-11-11T02:19:52.921Z,8.80
2018-11-11T02:22:21.430Z,8.80
2018-11-11T02:24:49.988Z,8.50
2018-11-11T02:27:18.521Z,8.50
2018-11-11T02:29:47.062Z,8.30
2018-11-11T02:32:15.557Z,8.40
2018-11-11T02:34:44.069Z,8.50
2018-11-11T02:37:12.583Z,8.60
2018-11-11T02:39:41.124Z,8.70
2018-11-11T02:42:09.621Z,8.70
2018-11-11T02:44:38.231Z,8.60
2018-11-11T02:47:06.778Z,8.30
2018-11-11T02:49:35.317Z,8.20
2018-11-11T02:52:03.821Z,8.20
2018-11-11T02:54:32.340Z,8.20
2018-11-11T02:57:00.839Z,8.30
2018-11-11T02:59:29.374Z,8.40
2018-11-11T03:01:57.889Z,8.40
2018-11-11T03:04:26.497Z,8.50
2018-11-11T03:06:54.956Z,8.60
2018-11-11T03:09:23.527Z,8.70
2018-11-11T03:11:52.045Z,8.50
2018-11-11T03:14:20.559Z,8.40
2018-11-11T03:16:49.087Z,8.50
2018-11-11T03:19:17.591Z,8.50
2018-11-11T03:21:46.119Z,8.40
2018-11-11T03:24:14.678Z,8.10
2018-11-11T03:26:43.155Z,8.00
2018-11-11T03:29:11.602Z,8.10
2018-11-11T03:31:40.056Z,8.00
2018-11-11T03:34:08.523Z,8.00
2018-11-11T03:36:36.996Z,8.00
2018-11-11T03:39:08.147Z,8.10
2018-11-11T03:41:36.985Z,8.30
2018-11-11T03:44:06.261Z,8.30
2018-11-11T03:46:34.856Z,8.10
2018-11-11T03:49:03.298Z,8.00
2018-11-11T03:51:31.756Z,8.20
2018-11-11T03:54:00.321Z,8.30
2018-11-11T03:56:28.797Z,8.30
2018-11-11T03:58:57.257Z,8.30
2018-11-11T04:01:25.737Z,8.20
2018-11-11T04:03:54.204Z,8.10
2018-11-11T04:06:22.667Z,7.90
2018-11-11T04:08:51.128Z,8.00
2018-11-11T04:11:19.613Z,7.80
2018-11-11T04:13:48.067Z,8.00
2018-11-11T04:16:16.525Z,7.60
2018-11-11T04:18:44.977Z,7.40
2018-11-11T04:21:13.476Z,7.40
2018-11-11T04:23:41.905Z,7.50
2018-11-11T04:26:10.405Z,7.60
2018-11-11T04:28:38.914Z,7.50
2018-11-11T04:31:07.380Z,7.50
2018-11-11T04:33:35.864Z,7.30
2018-11-11T04:36:04.642Z,7.40
2018-11-11T04:38:33.117Z,7.50
2018-11-11T04:41:01.591Z,7.60
2018-11-11T04:43:30.085Z,7.70
2018-11-11T04:45:58.555Z,7.70
2018-11-11T04:48:27.048Z,7.70
2018-11-11T04:50:55.539Z,7.70
2018-11-11T04:53:24.036Z,7.70
2018-11-11T04:55:52.533Z,7.80
2018-11-11T04:58:21.026Z,7.80
2018-11-11T05:00:49.520Z,7.70
2018-11-11T05:03:18.012Z,7.60
2018-11-11T05:05:46.488Z,7.40
2018-11-11T05:08:14.973Z,7.50
2018-11-11T05:10:43.440Z,7.40
2018-11-11T05:13:11.937Z,7.20
2018-11-11T05:15:40.406Z,7.20
2018-11-11T05:18:08.903Z,7.20
2018-11-11T05:20:37.376Z,7.30
2018-11-11T05:23:06.201Z,7.00
2018-11-11T05:25:34.669Z,6.80
2018-11-11T05:28:03.156Z,7.10
2018-11-11T05:30:31.619Z,7.30
2018-11-11T05:33:00.081Z,7.30
2018-11-11T05:35:28.586Z,7.40
2018-11-11T05:37:57.780Z,7.50
2018-11-11T05:40:26.209Z,7.20
2018-11-11T05:42:54.659Z,7.00
2018-11-11T05:45:23.124Z,6.80
2018-11-11T05:47:51.572Z,6.90
2018-11-11T05:50:20.046Z,6.90
2018-11-11T05:52:48.484Z,7.00
2018-11-11T05:55:16.977Z,7.20
2018-11-11T05:57:45.420Z,7.20
2018-11-11T06:00:15.238Z,7.20
2018-11-11T06:02:44.015Z,7.40
2018-11-11T06:05:15.307Z,7.40
2018-11-11T06:07:43.737Z,7.40
2018-11-11T06:10:13.532Z,7.40
2018-11-11T06:12:42.105Z,7.50
2018-11-11T06:15:11.732Z,7.40
2018-11-11T06:17:40.284Z,7.50
2018-11-11T06:20:12.481Z,7.60
2018-11-11T06:22:40.913Z,7.50
2018-11-11T06:25:09.615Z,7.40
2018-11-11T06:27:38.179Z,7.50
2018-11-11T06:30:07.479Z,7.50
2018-11-11T06:32:36.030Z,7.50
2018-11-11T06:35:04.576Z,7.60
2018-11-11T06:37:33.075Z,7.60
2018-11-11T06:40:01.593Z,7.70
2018-11-11T06:42:30.092Z,7.60
2018-11-11T06:44:58.604Z,7.70
2018-11-11T06:47:27.135Z,7.90
2018-11-11T06:49:55.758Z,7.80
2018-11-11T06:52:24.350Z,7.70
2018-11-11T06:54:52.838Z,7.70
2018-11-11T06:57:21.316Z,7.60
2018-11-11T06:59:49.840Z,7.60
2018-11-11T07:02:18.333Z,7.60
2018-11-11T07:04:46.804Z,7.50
2018-11-11T07:07:15.289Z,7.60
2018-11-11T07:09:43.780Z,7.70
2018-11-11T07:12:13.268Z,7.70
2018-11-11T07:14:41.757Z,7.80
2018-11-11T07:17:11.251Z,7.80
2018-11-11T07:19:39.723Z,7.80
2018-11-11T07:22:08.198Z,7.80
2018-11-11T07:24:36.664Z,7.90
2018-11-11T07:27:05.705Z,7.90
2018-11-11T07:29:34.235Z,8.00
2018-11-11T07:32:02.813Z,8.10
2018-11-11T07:34:31.418Z,8.10
2018-11-11T07:37:01.937Z,8.20
2018-11-11T07:39:30.429Z,8.20
2018-11-11T07:41:59.119Z,8.10
2018-11-11T07:44:27.806Z,8.10
2018-11-11T07:46:56.306Z,8.10
2018-11-11T07:49:24.781Z,8.20
2018-11-11T07:51:53.353Z,8.20
2018-11-11T07:54:22.918Z,8.20
2018-11-11T07:56:51.418Z,7.90
2018-11-11T07:59:19.978Z,7.80
2018-11-11T08:01:48.584Z,8.00
2018-11-11T08:04:16.985Z,7.80
2018-11-11T08:06:45.482Z,7.60
2018-11-11T08:09:13.939Z,7.50
2018-11-11T08:11:52.808Z,7.50
2018-11-11T08:14:21.302Z,7.60
2018-11-11T08:16:49.812Z,7.70
2018-11-11T08:19:18.307Z,7.80
2018-11-11T08:21:46.781Z,7.70
2018-11-11T08:24:15.286Z,7.70
2018-11-11T08:26:43.797Z,7.80
2018-11-11T08:29:12.333Z,7.80
2018-11-11T08:31:41.203Z,7.90
2018-11-11T08:34:09.723Z,8.10
2018-11-11T08:36:38.219Z,8.20
2018-11-11T08:39:09.182Z,8.20
2018-11-11T08:41:39.085Z,8.30
2018-11-11T08:44:07.744Z,8.60
2018-11-11T08:46:36.255Z,8.70
2018-11-11T08:49:04.946Z,9.10
2018-11-11T08:51:33.422Z,9.30
2018-11-11T08:54:01.916Z,9.40
2018-11-11T08:56:30.856Z,9.60
2018-11-11T08:58:59.361Z,9.80
2018-11-11T09:01:27.844Z,10.00
2018-11-11T09:03:56.337Z,9.80
2018-11-11T09:06:24.815Z,9.70
2018-11-11T09:08:53.304Z,10.00
2018-11-11T09:11:21.913Z,10.40
2018-11-11T09:13:50.684Z,10.80
2018-11-11T09:16:19.403Z,11.10
2018-11-11T09:18:48.370Z,11.20
2018-11-11T09:21:16.909Z,11.60
2018-11-11T09:23:45.458Z,11.50
2018-11-11T09:26:13.996Z,11.70
2018-11-11T09:28:42.556Z,12.00
2018-11-11T09:31:11.001Z,11.30
2018-11-11T09:33:39.575Z,11.40
2018-11-11T09:36:08.808Z,11.90
2018-11-11T09:38:38.552Z,12.20
2018-11-11T09:41:07.748Z,12.40
2018-11-11T09:43:36.325Z,12.50
2018-11-11T09:46:04.813Z,12.70
2018-11-11T09:48:33.335Z,13.00
2018-11-11T09:51:01.875Z,12.70
2018-11-11T09:53:30.344Z,12.90
2018-11-11T09:55:58.801Z,13.30
2018-11-11T09:58:27.270Z,13.40
2018-11-11T10:00:55.720Z,13.60
2018-11-11T10:03:34.331Z,13.70
2018-11-11T10:08:10.148Z,13.80
2018-11-11T10:11:42.360Z,13.60
2018-11-11T10:14:17.901Z,13.70
2018-11-11T10:17:52.047Z,14.00
2018-11-11T10:20:31.638Z,14.30
2018-11-11T10:23:06.551Z,14.50
2018-11-11T10:27:44.783Z,14.60
2018-11-11T10:30:17.672Z,14.80
2018-11-11T10:33:03.797Z,14.50
2018-11-11T10:35:39.404Z,14.30
2018-11-11T10:38:18.007Z,14.60
2018-11-11T10:41:00.316Z,14.70
2018-11-11T10:43:50.399Z,14.60
2018-11-11T10:46:22.375Z,14.30
2018-11-11T10:49:03.225Z,14.70
2018-11-11T10:51:31.803Z,15.20
2018-11-11T10:54:00.263Z,15.00
2018-11-11T10:56:28.776Z,14.90
2018-11-11T10:58:57.268Z,15.20
2018-11-11T11:01:26.792Z,15.30
2018-11-11T11:03:55.326Z,15.30
2018-11-11T11:06:29.146Z,15.30
2018-11-11T11:09:03.055Z,15.30
2018-11-11T11:11:31.572Z,15.30
2018-11-11T11:14:00.144Z,15.30
2018-11-11T11:16:28.565Z,15.50
2018-11-11T11:18:57.055Z,15.30
2018-11-11T11:21:25.535Z,15.00
2018-11-11T11:23:54.008Z,14.90
2018-11-11T11:26:22.493Z,14.70
2018-11-11T11:28:50.983Z,14.70
2018-11-11T11:31:19.524Z,14.80
2018-11-11T11:33:47.996Z,15.10
2018-11-11T11:36:16.509Z,15.30
2018-11-11T11:38:45.013Z,15.30
2018-11-11T11:41:13.501Z,15.20
2018-11-11T11:43:41.997Z,15.20
2018-11-11T11:46:10.465Z,15.30
2018-11-11T11:48:38.973Z,15.50
2018-11-11T11:51:07.453Z,15.80
2018-11-11T11:53:35.961Z,15.80
2018-11-11T11:56:04.485Z,15.60
2018-11-11T11:58:33.124Z,15.70
2018-11-11T12:01:01.682Z,15.80
2018-11-11T12:03:30.218Z,15.70
2018-11-11T12:05:58.700Z,15.80
2018-11-11T12:08:27.275Z,15.80
2018-11-11T12:10:55.729Z,15.80
2018-11-11T12:13:24.229Z,15.90
2018-11-11T12:15:52.751Z,16.00
2018-11-11T12:18:21.244Z,16.00
2018-11-11T12:20:49.734Z,15.90
2018-11-11T12:23:18.308Z,16.00
2018-11-11T12:25:46.748Z,16.10
2018-11-11T12:28:15.267Z,16.10
2018-11-11T12:30:43.811Z,16.10
2018-11-11T12:33:12.326Z,16.00
2018-11-11T12:35:40.804Z,15.80
2018-11-11T12:38:09.312Z,15.70
2018-11-11T12:40:37.799Z,15.50
2018-11-11T12:43:06.323Z,15.50
2018-11-11T12:45:34.793Z,15.40
2018-11-11T12:48:03.258Z,15.30
2018-11-11T12:50:31.804Z,15.20
2018-11-11T12:53:00.271Z,15.20
2018-11-11T12:55:28.859Z,15.40
2018-11-11T12:57:57.516Z,15.50
2018-11-11T13:00:26.004Z,15.70
2018-11-11T13:02:54.473Z,15.80
2018-11-11T13:05:22.971Z,16.10
2018-11-11T13:07:51.475Z,16.20
2018-11-11T13:10:19.971Z,16.20
2018-11-11T13:12:48.463Z,16.20
2018-11-11T13:15:16.982Z,16.30
2018-11-11T13:17:45.445Z,16.30
2018-11-11T13:20:16.276Z,16.30
2018-11-11T13:22:44.866Z,16.30
2018-11-11T13:25:14.184Z,16.40
2018-11-11T13:27:42.688Z,16.40
2018-11-11T13:30:12.668Z,16.40
2018-11-11T13:32:41.201Z,16.30
2018-11-11T13:35:11.600Z,16.50
2018-11-11T13:37:40.181Z,16.70
2018-11-11T13:40:11.218Z,16.50
2018-11-11T13:42:39.733Z,16.40
2018-11-11T13:45:10.468Z,16.50
2018-11-11T13:47:38.948Z,16.70
2018-11-11T13:50:09.959Z,16.60
2018-11-11T13:52:38.420Z,16.50
2018-11-11T13:55:07.888Z,16.50
2018-11-11T13:57:36.397Z,16.70
2018-11-11T14:00:07.456Z,16.70
2018-11-11T14:02:35.989Z,16.60
2018-11-11T14:05:04.614Z,16.70
2018-11-11T14:07:33.185Z,16.70
2018-11-11T14:10:01.709Z,16.90
2018-11-11T14:12:33.640Z,16.60
2018-11-11T14:15:03.224Z,16.60
2018-11-11T14:17:36.169Z,16.50
2018-11-11T14:20:05.249Z,16.30
2018-11-11T14:22:33.752Z,16.40
2018-11-11T14:25:11.077Z,16.40
2018-11-11T14:27:39.603Z,16.40
2018-11-11T14:30:11.266Z,16.50
2018-11-11T14:32:39.812Z,16.70
2018-11-11T14:35:08.980Z,16.60
2018-11-11T14:37:37.732Z,16.60
2018-11-11T14:40:10.603Z,16.70
2018-11-11T14:42:39.447Z,16.60
2018-11-11T14:45:08.912Z,16.30
2018-11-11T14:47:37.505Z,16.30
2018-11-11T14:50:07.235Z,16.40
2018-11-11T14:52:35.750Z,16.30
2018-11-11T14:55:04.705Z,16.20
2018-11-11T14:57:33.202Z,16.30
2018-11-11T15:00:02.141Z,16.30
2018-11-11T15:02:30.644Z,16.20
2018-11-11T15:04:59.132Z,16.00
2018-11-11T15:07:27.690Z,15.80
2018-11-11T15:09:56.190Z,15.70
2018-11-11T15:12:24.716Z,15.60
2018-11-11T15:14:53.182Z,15.40
2018-11-11T15:17:21.673Z,15.20
2018-11-11T15:19:50.243Z,15.00
2018-11-11T15:22:18.715Z,15.10
2018-11-11T15:24:47.190Z,15.00
2018-11-11T15:27:15.692Z,14.60
2018-11-11T15:29:44.177Z,14.50
2018-11-11T15:32:12.656Z,14.60
2018-11-11T15:34:41.115Z,14.40
2018-11-11T15:37:09.603Z,14.40
2018-11-11T15:39:38.073Z,14.20
2018-11-11T15:42:06.616Z,14.10
2018-11-11T15:44:35.220Z,14.10
2018-11-11T15:47:03.716Z,14.10
2018-11-11T15:49:32.169Z,14.00
2018-11-11T15:52:00.737Z,14.00
2018-11-11T15:54:29.175Z,13.80
2018-11-11T15:56:57.678Z,13.80
2018-11-11T15:59:26.230Z,13.70
2018-11-11T16:01:54.761Z,13.40
2018-11-11T16:04:23.289Z,13.40
2018-11-11T16:06:51.789Z,13.30
2018-11-11T16:09:20.332Z,13.40
2018-11-11T16:11:48.838Z,13.30
2018-11-11T16:14:17.344Z,13.30
2018-11-11T16:16:45.828Z,13.30
2018-11-11T16:19:14.455Z,13.30
2018-11-11T16:21:42.939Z,13.40
2018-11-11T16:24:11.429Z,13.40
2018-11-11T16:26:39.919Z,13.30
2018-11-11T16:29:08.664Z,13.40
2018-11-11T16:31:37.193Z,13.30
2018-11-11T16:34:06.905Z,13.40
2018-11-11T16:36:35.419Z,13.30
2018-11-11T16:39:04.979Z,13.30
2018-11-11T16:41:33.577Z,13.10
2018-11-11T16:44:01.984Z,13.10
2018-11-11T16:46:30.410Z,13.10
2018-11-11T16:48:58.893Z,13.00
2018-11-11T16:51:27.420Z,12.90
2018-11-11T16:53:55.975Z,13.00
2018-11-11T16:56:24.449Z,13.00
2018-11-11T16:58:52.957Z,13.00
2018-11-11T17:01:21.476Z,13.10
2018-11-11T17:03:50.289Z,13.10
2018-11-11T17:06:18.771Z,13.00
2018-11-11T17:08:47.262Z,13.00
2018-11-11T17:11:15.730Z,13.00
2018-11-11T17:13:44.206Z,13.00
2018-11-11T17:16:12.669Z,13.00
2018-11-11T17:18:41.207Z,13.00
2018-11-11T17:21:09.707Z,13.00
2018-11-11T17:23:38.171Z,12.90
2018-11-11T17:26:06.837Z,13.00
2018-11-11T17:28:35.337Z,12.90
2018-11-11T17:31:03.833Z,12.90
2018-11-11T17:33:32.285Z,12.90
2018-11-11T17:36:00.771Z,12.90
2018-11-11T17:38:29.185Z,12.80
2018-11-11T17:41:01.178Z,12.80
2018-11-11T17:43:29.619Z,12.90
2018-11-11T17:45:58.093Z,12.70
2018-11-11T17:48:26.569Z,12.50
2018-11-11T17:50:55.006Z,12.40
2018-11-11T17:53:23.447Z,12.40
2018-11-11T17:55:51.888Z,12.40
2018-11-11T17:58:20.322Z,12.50
2018-11-11T18:00:48.792Z,12.50
2018-11-11T18:03:17.266Z,12.70
2018-11-11T18:05:45.710Z,12.60
2018-11-11T18:08:14.205Z,12.60
2018-11-11T18:10:42.691Z,12.50
2018-11-11T18:13:11.141Z,12.50
2018-11-11T18:15:39.615Z,12.50
2018-11-11T18:18:08.056Z,12.40
2018-11-11T18:20:36.548Z,12.30
2018-11-11T18:23:05.115Z,12.20
2018-11-11T18:25:33.639Z,12.10
2018-11-11T18:28:02.255Z,12.10
2018-11-11T18:30:32.004Z,12.00
2018-11-11T18:33:00.456Z,11.90
2018-11-11T18:35:28.912Z,11.90
2018-11-11T18:37:57.355Z,11.90
2018-11-11T18:40:27.064Z,11.80
2018-11-11T18:42:55.554Z,11.80
2018-11-11T18:45:26.347Z,11.90
2018-11-11T18:47:54.856Z,11.80
2018-11-11T18:50:24.646Z,11.80
2018-11-11T18:52:53.109Z,11.70
2018-11-11T18:55:21.566Z,11.80
2018-11-11T18:57:50.132Z,11.70
2018-11-11T19:00:19.952Z,11.80
2018-11-11T19:02:49.475Z,11.70
2018-11-11T19:05:18.748Z,11.70
2018-11-11T19:07:47.669Z,11.70
2018-11-11T19:10:23.860Z,11.60
2018-11-11T19:12:53.663Z,11.60
2018-11-11T19:15:22.523Z,11.50
2018-11-11T19:17:51.720Z,11.60
2018-11-11T19:20:21.549Z,11.50
2018-11-11T19:22:50.040Z,11.50
2018-11-11T19:25:19.817Z,11.50
2018-11-11T19:27:49.592Z,11.40
2018-11-11T19:30:19.180Z,11.40
2018-11-11T19:32:48.267Z,11.40
2018-11-11T19:35:17.121Z,11.50
2018-11-11T19:37:46.964Z,11.40
2018-11-11T19:40:20.569Z,11.30
2018-11-11T19:42:49.352Z,11.40
2018-11-11T19:45:19.109Z,11.40
2018-11-11T19:47:47.636Z,11.40
2018-11-11T19:50:18.373Z,11.50
2018-11-11T19:52:48.211Z,11.50
2018-11-11T19:55:17.583Z,11.50
2018-11-11T19:57:46.144Z,11.50
2018-11-11T20:00:17.208Z,11.60
2018-11-11T20:02:46.805Z,11.50
2018-11-11T20:05:16.592Z,11.50
2018-11-11T20:07:50.731Z,11.60
2018-11-11T20:10:19.749Z,11.50
2018-11-11T20:12:48.229Z,11.50
2018-11-11T20:15:18.311Z,11.50
2018-11-11T20:17:47.236Z,11.60
2018-11-11T20:20:18.193Z,11.80
2018-11-11T20:22:53.872Z,11.70
2018-11-11T20:25:28.121Z,11.70
2018-11-11T20:27:56.635Z,11.80
2018-11-11T20:30:26.340Z,11.70
2018-11-11T20:32:54.817Z,11.70
2018-11-11T20:35:25.799Z,11.80
2018-11-11T20:37:54.301Z,11.70
2018-11-11T20:40:23.652Z,11.80
2018-11-11T20:42:52.633Z,11.90
2018-11-11T20:45:22.489Z,11.80
2018-11-11T20:47:51.433Z,11.90
2018-11-11T20:50:21.265Z,11.90
2018-11-11T20:52:51.471Z,12.00
2018-11-11T20:55:20.488Z,12.00
2018-11-11T20:57:48.948Z,12.00
2018-11-11T21:00:18.684Z,11.80
2018-11-11T21:02:47.157Z,11.80
2018-11-11T21:05:16.973Z,11.80
2018-11-11T21:07:45.483Z,12.00
2018-11-11T21:10:15.066Z,12.00
2018-11-11T21:12:43.521Z,12.00
2018-11-11T21:15:14.313Z,11.90
2018-11-11T21:17:43.162Z,11.90
2018-11-11T21:20:12.985Z,12.10
2018-11-11T21:22:41.852Z,12.10
2018-11-11T21:25:10.566Z,12.10
2018-11-11T21:27:40.113Z,12.20
2018-11-11T21:30:11.020Z,12.10
2018-11-11T21:32:39.509Z,12.10
2018-11-11T21:35:08.291Z,12.10
2018-11-11T21:37:36.798Z,12.00
2018-11-11T21:40:07.040Z,12.10
2018-11-11T21:42:35.469Z,12.20
2018-11-11T21:45:03.983Z,12.20
2018-11-11T21:47:32.437Z,12.20
2018-11-11T21:50:00.880Z,12.10
2018-11-11T21:52:29.344Z,12.10
2018-11-11T21:54:57.797Z,12.10
2018-11-11T21:57:26.559Z,12.10
2018-11-11T21:59:55.012Z,12.20
2018-11-11T22:02:23.466Z,12.20
2018-11-11T22:04:51.934Z,12.40
2018-11-11T22:07:20.411Z,12.30
2018-11-11T22:09:48.949Z,12.30
2018-11-11T22:12:17.320Z,12.40
2018-11-11T22:14:45.752Z,12.40
2018-11-11T22:17:14.217Z,12.50
2018-11-11T22:19:42.707Z,12.50
2018-11-11T22:22:11.177Z,12.40
2018-11-11T22:24:39.664Z,12.40
2018-11-11T22:27:08.142Z,12.50
2018-11-11T22:29:36.604Z,12.20
2018-11-11T22:32:05.520Z,12.20
2018-11-11T22:34:33.988Z,12.30
2018-11-11T22:37:02.465Z,12.30
2018-11-11T22:39:30.896Z,12.40
2018-11-11T22:41:59.365Z,12.50
2018-11-11T22:44:27.829Z,12.50
2018-11-11T22:46:56.276Z,12.50
2018-11-11T22:49:24.745Z,12.50
2018-11-11T22:51:53.236Z,12.60
2018-11-11T22:54:21.737Z,12.60
2018-11-11T22:56:50.218Z,12.60
2018-11-11T22:59:20.731Z,12.60
2018-11-11T23:01:49.192Z,12.60
2018-11-11T23:04:17.641Z,12.70
2018-11-11T23:06:46.076Z,12.80
2018-11-11T23:09:14.549Z,12.70
2018-11-11T23:11:43.040Z,12.80
2018-11-11T23:14:11.499Z,12.70
2018-11-11T23:16:39.990Z,12.80
2018-11-11T23:19:08.456Z,12.90
2018-11-11T23:21:36.925Z,12.70
2018-11-11T23:24:06.016Z,12.80
2018-11-11T23:26:34.531Z,12.70
2018-11-11T23:29:03.000Z,12.90
2018-11-11T23:31:31.469Z,12.80
2018-11-11T23:33:59.953Z,12.80
2018-11-11T23:36:28.417Z,12.90
2018-11-11T23:38:56.939Z,12.80
2018-11-11T23:41:25.453Z,12.90
2018-11-11T23:43:54.014Z,12.80
2018-11-11T23:46:22.477Z,12.80
2018-11-11T23:48:50.992Z,12.60
2018-11-11T23:51:19.449Z,12.60
2018-11-11T23:53:47.953Z,12.60
2018-11-11T23:56:16.428Z,12.40
2018-11-11T23:58:44.917Z,12.30
